NCAR-RAP Real-Time Weather Data

Output produced by METARs form (10 April 2020  06:59 UTC)
found at http://weather.rap.ucar.edu/surface/
 
KBDL 100651Z 29012G26KT 10SM FEW060 FEW120 SCT180 05/M06 A2922 RMK AO2 PK WND 28026/0645 SLP896 T00501056